createdAt,value
2023-10-11T00:00:37.008Z,34.95
2023-10-11T00:01:40.253Z,34.47
2023-10-11T00:02:45.382Z,35.55
2023-10-11T00:03:53.854Z,33.50
2023-10-11T00:04:56.353Z,36.43
2023-10-11T00:05:58.682Z,33.87
2023-10-11T00:07:01.856Z,33.27
2023-10-11T00:08:05.064Z,31.80
2023-10-11T00:09:13.731Z,29.02
2023-10-11T00:10:20.827Z,29.07
2023-10-11T00:11:28.902Z,29.65
2023-10-11T00:12:31.217Z,29.22
2023-10-11T00:13:36.765Z,29.22
2023-10-11T00:14:43.238Z,28.68
2023-10-11T00:15:51.426Z,28.10
2023-10-11T00:16:55.554Z,27.70
2023-10-11T00:17:57.974Z,27.73
2023-10-11T00:19:01.257Z,26.38
2023-10-11T00:20:12.924Z,27.00
2023-10-11T00:21:17.694Z,25.83
2023-10-11T00:22:20.377Z,25.28
2023-10-11T00:23:25.103Z,24.85
2023-10-11T00:24:29.963Z,25.23
2023-10-11T00:25:33.701Z,25.10
2023-10-11T00:26:39.195Z,25.40
2023-10-11T00:27:42.872Z,25.43
2023-10-11T00:28:46.344Z,24.90
2023-10-11T00:29:49.373Z,25.63
2023-10-11T00:30:58.255Z,26.07
2023-10-11T00:32:00.513Z,25.70
2023-10-11T00:33:06.965Z,25.27
2023-10-11T00:34:12.027Z,25.08
2023-10-11T00:35:20.652Z,24.58
2023-10-11T00:36:30.259Z,25.55
2023-10-11T00:37:33.363Z,25.43
2023-10-11T00:38:45.157Z,26.53
2023-10-11T00:39:48.475Z,26.38
2023-10-11T00:41:02.137Z,25.83
2023-10-11T00:42:05.431Z,25.53
2023-10-11T00:43:07.965Z,26.07
2023-10-11T00:44:11.161Z,25.82
2023-10-11T00:45:17.779Z,25.88
2023-10-11T00:46:23.640Z,25.20
2023-10-11T00:47:26.428Z,25.13
2023-10-11T00:48:30.930Z,24.45
2023-10-11T00:49:38.243Z,26.17
2023-10-11T00:50:40.682Z,25.85
2023-10-11T00:51:47.720Z,26.13
2023-10-11T00:52:51.275Z,24.75
2023-10-11T00:53:55.800Z,26.05
2023-10-11T00:54:58.135Z,25.30
2023-10-11T00:56:03.356Z,25.82
2023-10-11T00:57:07.236Z,25.27
2023-10-11T00:58:09.952Z,25.18
2023-10-11T00:59:17.879Z,25.80
2023-10-11T01:00:22.976Z,24.98
2023-10-11T01:01:26.695Z,25.15
2023-10-11T01:02:33.114Z,24.52
2023-10-11T01:03:36.728Z,24.63
2023-10-11T01:04:41.112Z,24.35
2023-10-11T01:05:47.276Z,25.27
2023-10-11T01:06:50.025Z,24.70
2023-10-11T01:07:55.248Z,25.53
2023-10-11T01:08:57.530Z,25.95
2023-10-11T01:10:00.804Z,25.22
2023-10-11T01:11:06.266Z,25.15
2023-10-11T01:12:09.495Z,24.45
2023-10-11T01:13:11.690Z,24.35
2023-10-11T01:14:14.792Z,24.40
2023-10-11T01:15:24.423Z,25.00
2023-10-11T01:16:27.995Z,24.28
2023-10-11T01:17:33.039Z,25.12
2023-10-11T01:18:36.439Z,25.18
2023-10-11T01:19:38.690Z,24.52
2023-10-11T01:20:43.824Z,24.82
2023-10-11T01:21:48.812Z,24.13
2023-10-11T01:22:51.978Z,24.87
2023-10-11T01:23:54.119Z,24.57
2023-10-11T01:24:59.656Z,24.18
2023-10-11T01:26:07.706Z,23.78
2023-10-11T01:27:14.826Z,24.35
2023-10-11T01:28:17.182Z,23.47
2023-10-11T01:29:20.680Z,23.85
2023-10-11T01:30:23.232Z,24.78
2023-10-11T01:31:28.753Z,24.15
2023-10-11T01:32:31.062Z,24.25
2023-10-11T01:33:34.407Z,24.55
2023-10-11T01:34:36.872Z,24.00
2023-10-11T01:35:40.947Z,24.07
2023-10-11T01:36:45.537Z,24.33
2023-10-11T01:37:49.825Z,24.27
2023-10-11T01:38:52.243Z,26.07
2023-10-11T01:39:55.483Z,24.78
2023-10-11T01:40:57.647Z,23.48
2023-10-11T01:42:01.170Z,24.52
2023-10-11T01:43:04.801Z,24.55
2023-10-11T01:44:08.389Z,24.33
2023-10-11T01:45:11.055Z,24.87
2023-10-11T01:46:18.718Z,25.43
2023-10-11T01:47:20.950Z,25.68
2023-10-11T01:48:24.131Z,26.05
2023-10-11T01:49:26.385Z,27.62
2023-10-11T01:50:29.836Z,27.33
2023-10-11T01:51:32.085Z,27.48
2023-10-11T01:52:36.082Z,27.23
2023-10-11T01:53:39.361Z,28.02
2023-10-11T01:54:41.660Z,36.98
2023-10-11T01:55:43.838Z,42.22
2023-10-11T01:56:47.423Z,36.90
2023-10-11T01:57:51.240Z,33.48
2023-10-11T01:58:58.048Z,32.88
2023-10-11T02:00:04.494Z,32.92
2023-10-11T02:01:08.732Z,34.43
2023-10-11T02:02:12.190Z,35.08
2023-10-11T02:03:15.519Z,36.63
2023-10-11T02:04:19.217Z,38.35
2023-10-11T02:05:23.729Z,40.17
2023-10-11T02:06:27.143Z,40.12
2023-10-11T02:07:32.826Z,40.12
2023-10-11T02:08:38.279Z,39.95
2023-10-11T02:09:44.605Z,40.05
2023-10-11T02:10:46.825Z,39.93
2023-10-11T02:11:53.709Z,38.52
2023-10-11T02:12:58.160Z,39.92
2023-10-11T02:14:01.589Z,38.50
2023-10-11T02:15:09.074Z,38.35
2023-10-11T02:16:15.920Z,39.10
2023-10-11T02:17:22.101Z,33.83
2023-10-11T02:18:26.401Z,32.78
2023-10-11T02:19:30.287Z,31.98
2023-10-11T02:20:33.770Z,32.23
2023-10-11T02:21:38.102Z,31.13
2023-10-11T02:22:45.405Z,31.58
2023-10-11T02:23:49.088Z,32.07
2023-10-11T02:24:53.159Z,31.78
2023-10-11T02:25:55.414Z,32.33
2023-10-11T02:26:59.758Z,33.02
2023-10-11T02:28:02.182Z,33.93
2023-10-11T02:29:11.581Z,34.28
2023-10-11T02:30:14.967Z,32.75
2023-10-11T02:31:22.118Z,32.73
2023-10-11T02:32:32.941Z,31.82
2023-10-11T02:33:36.915Z,32.80
2023-10-11T02:34:42.475Z,34.22
2023-10-11T02:35:56.664Z,32.05
2023-10-11T02:37:02.925Z,32.82
2023-10-11T02:38:10.647Z,33.42
2023-10-11T02:39:19.314Z,33.05
2023-10-11T02:40:25.168Z,33.62
2023-10-11T02:41:27.394Z,33.63
2023-10-11T02:42:30.565Z,33.35
2023-10-11T02:43:34.960Z,31.75
2023-10-11T02:44:41.382Z,32.13
2023-10-11T02:45:44.480Z,31.68
2023-10-11T02:46:47.639Z,31.53
2023-10-11T02:47:50.097Z,31.80
2023-10-11T02:49:05.657Z,31.73
2023-10-11T02:50:08.479Z,29.90
2023-10-11T02:51:18.653Z,29.73
2023-10-11T02:52:20.909Z,29.78
2023-10-11T02:53:23.128Z,29.07
2023-10-11T02:54:35.469Z,29.83
2023-10-11T02:55:39.616Z,30.77
2023-10-11T02:56:48.827Z,29.02
2023-10-11T02:58:06.580Z,29.45
2023-10-11T02:59:12.900Z,29.77
2023-10-11T03:00:22.844Z,30.53
2023-10-11T03:01:32.500Z,29.30
2023-10-11T03:02:40.044Z,29.15
2023-10-11T03:03:43.924Z,29.43
2023-10-11T03:04:46.216Z,29.63
2023-10-11T03:05:49.994Z,28.30
2023-10-11T03:06:52.193Z,28.23
2023-10-11T03:07:56.452Z,28.42
2023-10-11T03:08:59.616Z,27.50
2023-10-11T03:10:04.640Z,28.17
2023-10-11T03:11:09.683Z,28.82
2023-10-11T03:12:19.746Z,28.13
2023-10-11T03:13:30.881Z,27.98
2023-10-11T03:14:42.070Z,27.12
2023-10-11T03:15:45.657Z,26.05
2023-10-11T03:16:57.076Z,27.28
2023-10-11T03:18:06.472Z,25.92
2023-10-11T03:19:11.339Z,26.88
2023-10-11T03:20:37.556Z,27.15
2023-10-11T03:21:40.442Z,26.83
2023-10-11T03:22:47.150Z,27.68
2023-10-11T03:23:50.623Z,28.22
2023-10-11T03:25:00.969Z,27.77
2023-10-11T03:26:09.849Z,28.70
2023-10-11T03:27:14.877Z,29.35
2023-10-11T03:28:22.525Z,30.03
2023-10-11T03:29:25.693Z,30.15
2023-10-11T03:30:28.089Z,30.78
2023-10-11T03:31:33.154Z,31.72
2023-10-11T03:32:39.258Z,31.70
2023-10-11T03:33:42.020Z,31.45
2023-10-11T03:34:45.198Z,30.77
2023-10-11T03:35:47.376Z,31.47
2023-10-11T03:36:53.753Z,31.28
2023-10-11T03:37:59.123Z,30.42
2023-10-11T03:39:10.343Z,32.37
2023-10-11T03:40:28.432Z,34.08
2023-10-11T03:41:32.999Z,31.67
2023-10-11T03:42:51.625Z,31.60
2023-10-11T03:43:55.979Z,31.90
2023-10-11T03:45:00.421Z,31.00
2023-10-11T03:46:05.281Z,29.08
2023-10-11T03:47:10.195Z,29.52
2023-10-11T03:48:13.029Z,30.13
2023-10-11T03:49:36.862Z,29.40
2023-10-11T03:50:48.714Z,29.70
2023-10-11T03:51:52.310Z,29.53
2023-10-11T03:53:07.743Z,30.45
2023-10-11T03:54:14.488Z,28.92
2023-10-11T03:55:16.892Z,28.75
2023-10-11T03:56:20.021Z,28.75
2023-10-11T03:57:24.028Z,28.53
2023-10-11T03:58:38.746Z,28.38
2023-10-11T03:59:48.639Z,29.30
2023-10-11T04:00:52.584Z,28.93
2023-10-11T04:01:55.152Z,29.50
2023-10-11T04:02:59.411Z,31.40
2023-10-11T04:04:01.939Z,31.42
2023-10-11T04:05:05.652Z,31.83
2023-10-11T04:06:15.272Z,31.50
2023-10-11T04:07:24.112Z,30.25
2023-10-11T04:08:26.421Z,29.53
2023-10-11T04:09:38.643Z,30.18
2023-10-11T04:10:41.685Z,29.87
2023-10-11T04:11:56.900Z,28.20
2023-10-11T04:13:00.609Z,30.18
2023-10-11T04:14:03.764Z,29.30
2023-10-11T04:15:13.997Z,29.08
2023-10-11T04:16:18.996Z,28.02
2023-10-11T04:17:27.694Z,29.73
2023-10-11T04:18:38.602Z,31.38
2023-10-11T04:19:41.634Z,32.93
2023-10-11T04:21:00.216Z,32.67
2023-10-11T04:22:13.624Z,29.33
2023-10-11T04:23:16.967Z,29.08
2023-10-11T04:24:21.041Z,29.88
2023-10-11T04:25:26.672Z,29.48
2023-10-11T04:26:34.786Z,30.27
2023-10-11T04:27:54.457Z,29.17
2023-10-11T04:29:07.485Z,29.97
2023-10-11T04:30:25.017Z,31.25
2023-10-11T04:31:31.165Z,31.73
2023-10-11T04:32:43.582Z,32.52
2023-10-11T04:33:52.143Z,31.73
2023-10-11T04:34:57.434Z,31.78
2023-10-11T04:35:59.800Z,32.82
2023-10-11T04:37:08.078Z,33.18
2023-10-11T04:38:12.745Z,32.35
2023-10-11T04:39:18.458Z,32.87
2023-10-11T04:40:24.853Z,33.52
2023-10-11T04:41:37.821Z,34.42
2023-10-11T04:42:40.353Z,32.25
2023-10-11T04:43:51.527Z,33.27
2023-10-11T04:44:56.196Z,33.05
2023-10-11T04:46:01.352Z,35.72
2023-10-11T04:47:03.666Z,36.63
2023-10-11T04:48:06.884Z,39.73
2023-10-11T04:49:20.218Z,44.62
2023-10-11T04:50:24.376Z,38.72
2023-10-11T04:51:30.269Z,39.13
2023-10-11T04:52:38.165Z,41.85
2023-10-11T04:53:55.763Z,43.43
2023-10-11T04:54:58.256Z,45.28
2023-10-11T04:56:06.210Z,45.82
2023-10-11T04:57:08.822Z,47.55
2023-10-11T04:58:15.204Z,49.03
2023-10-11T04:59:21.581Z,49.70
2023-10-11T05:00:32.429Z,50.32
2023-10-11T05:01:59.262Z,51.85
2023-10-11T05:03:04.405Z,49.38
2023-10-11T05:04:13.659Z,47.72
2023-10-11T05:05:20.619Z,50.48
2023-10-11T05:06:32.153Z,50.93
2023-10-11T05:07:35.302Z,50.47
2023-10-11T05:08:52.700Z,49.03
2023-10-11T05:10:01.159Z,53.93
2023-10-11T05:11:05.093Z,56.70
2023-10-11T05:12:14.164Z,60.40
2023-10-11T05:13:17.164Z,54.35
2023-10-11T05:14:30.352Z,51.20
2023-10-11T05:15:43.955Z,53.97
2023-10-11T05:16:50.342Z,55.45
2023-10-11T05:18:00.361Z,54.47
2023-10-11T05:19:06.828Z,54.23
2023-10-11T05:20:45.862Z,50.30
2023-10-11T05:22:03.421Z,54.28
2023-10-11T05:23:06.822Z,55.73
2023-10-11T05:24:35.014Z,57.17
2023-10-11T05:25:55.552Z,55.73
2023-10-11T05:27:26.623Z,55.52
2023-10-11T05:28:45.178Z,52.88
2023-10-11T05:30:02.527Z,52.68
2023-10-11T05:31:23.424Z,53.45
2023-10-11T05:32:33.553Z,53.62
2023-10-11T05:33:46.787Z,51.63
2023-10-11T05:34:52.547Z,51.40
2023-10-11T05:36:15.522Z,51.18
2023-10-11T05:37:36.912Z,51.92
2023-10-11T05:38:57.451Z,52.10
2023-10-11T05:40:17.990Z,53.68
2023-10-11T05:41:38.669Z,53.25
2023-10-11T05:42:59.164Z,51.98
2023-10-11T05:44:20.529Z,53.10
2023-10-11T05:45:41.016Z,52.02
2023-10-11T05:47:03.360Z,53.43
2023-10-11T05:48:24.374Z,52.25
2023-10-11T05:49:41.571Z,54.83
2023-10-11T05:50:56.205Z,52.58
2023-10-11T05:51:59.133Z,50.83
2023-10-11T05:53:02.663Z,50.95
2023-10-11T05:54:05.352Z,51.65
2023-10-11T05:55:09.206Z,51.87
2023-10-11T05:56:13.685Z,50.67
2023-10-11T05:57:19.879Z,50.75
2023-10-11T05:58:22.222Z,50.12
2023-10-11T05:59:25.937Z,50.23
2023-10-11T06:00:28.414Z,48.03
2023-10-11T06:01:35.406Z,48.00
2023-10-11T06:02:39.460Z,50.80
2023-10-11T06:03:42.779Z,49.73
2023-10-11T06:04:45.294Z,50.93
2023-10-11T06:05:52.712Z,50.18
2023-10-11T06:06:59.971Z,50.95
2023-10-11T06:08:02.411Z,51.52
2023-10-11T06:09:06.602Z,49.70
2023-10-11T06:10:15.025Z,49.55
2023-10-11T06:11:19.812Z,55.88
2023-10-11T06:12:26.154Z,55.88
2023-10-11T06:13:30.229Z,60.95
2023-10-11T06:14:32.522Z,62.22
2023-10-11T06:15:37.342Z,62.78
2023-10-11T06:16:39.975Z,63.18
2023-10-11T06:17:49.567Z,62.38
2023-10-11T06:18:57.501Z,54.23
2023-10-11T06:20:18.519Z,53.88
2023-10-11T06:21:25.601Z,49.42
2023-10-11T06:22:30.243Z,47.67
2023-10-11T06:23:33.963Z,47.72
2023-10-11T06:24:38.423Z,47.88
2023-10-11T06:25:58.528Z,48.93
2023-10-11T06:27:33.762Z,49.83
2023-10-11T06:28:35.986Z,51.20
2023-10-11T06:29:39.228Z,51.93
2023-10-11T06:30:43.904Z,51.97
2023-10-11T06:31:46.525Z,50.13
2023-10-11T06:32:52.060Z,49.18
2023-10-11T06:33:55.880Z,48.72
2023-10-11T06:34:59.221Z,49.62
2023-10-11T06:36:01.483Z,48.42
2023-10-11T06:37:07.985Z,48.68
2023-10-11T06:38:11.146Z,48.45
2023-10-11T06:39:35.166Z,47.87
2023-10-11T06:40:41.261Z,50.60
2023-10-11T06:41:51.803Z,51.97
2023-10-11T06:42:58.497Z,53.30
2023-10-11T06:44:02.213Z,54.10
2023-10-11T06:45:06.886Z,54.20
2023-10-11T06:46:09.335Z,57.53
2023-10-11T06:47:13.367Z,55.70
2023-10-11T06:48:17.188Z,52.88
2023-10-11T06:49:20.721Z,52.92
2023-10-11T06:50:25.728Z,53.57
2023-10-11T06:51:29.221Z,53.88
2023-10-11T06:52:32.367Z,58.43
2023-10-11T06:53:36.642Z,60.88
2023-10-11T06:54:39.409Z,59.80
2023-10-11T06:55:49.223Z,63.93
2023-10-11T06:56:51.772Z,63.68
2023-10-11T06:57:56.594Z,63.15
2023-10-11T06:59:01.299Z,62.37
2023-10-11T07:00:13.653Z,61.55
2023-10-11T07:01:17.050Z,61.65
2023-10-11T07:02:19.288Z,55.35
2023-10-11T07:03:28.605Z,52.37
2023-10-11T07:04:37.939Z,51.67
2023-10-11T07:05:47.433Z,51.37
2023-10-11T07:06:51.301Z,50.62
2023-10-11T07:07:56.811Z,52.00
2023-10-11T07:09:06.534Z,55.48
2023-10-11T07:10:29.284Z,55.15
2023-10-11T07:11:52.007Z,55.83
2023-10-11T07:13:06.128Z,55.80
2023-10-11T07:14:15.924Z,54.85
2023-10-11T07:15:22.087Z,56.48
2023-10-11T07:16:28.666Z,55.17
2023-10-11T07:17:33.453Z,54.05
2023-10-11T07:18:41.398Z,54.88
2023-10-11T07:19:44.988Z,54.27
2023-10-11T07:21:05.191Z,52.97
2023-10-11T07:22:09.099Z,51.20
2023-10-11T07:23:19.984Z,50.53
2023-10-11T07:24:34.264Z,52.43
2023-10-11T07:25:39.168Z,51.90
2023-10-11T07:26:50.522Z,50.63
2023-10-11T07:27:55.030Z,48.42
2023-10-11T07:29:00.257Z,46.77
2023-10-11T07:30:19.190Z,46.87
2023-10-11T07:31:24.086Z,46.62
2023-10-11T07:32:28.719Z,47.38
2023-10-11T07:33:31.960Z,48.03
2023-10-11T07:34:37.051Z,45.70
2023-10-11T07:35:48.117Z,46.32
2023-10-11T07:36:51.693Z,46.12
2023-10-11T07:37:54.232Z,44.60
2023-10-11T07:38:57.903Z,43.05
2023-10-11T07:40:11.014Z,41.63
2023-10-11T07:41:19.769Z,39.28
2023-10-11T07:42:27.566Z,38.62
2023-10-11T07:43:33.576Z,38.08
2023-10-11T07:44:40.374Z,37.78
2023-10-11T07:45:48.865Z,38.50
2023-10-11T07:46:56.116Z,36.00
2023-10-11T07:48:10.685Z,36.10
2023-10-11T07:49:17.240Z,35.08
2023-10-11T07:50:24.566Z,35.28
2023-10-11T07:51:30.607Z,35.13
2023-10-11T07:52:35.336Z,35.20
2023-10-11T07:53:39.721Z,35.57
2023-10-11T07:54:44.508Z,32.87
2023-10-11T07:55:46.748Z,33.95
2023-10-11T07:56:53.190Z,33.98
2023-10-11T07:58:01.959Z,34.60
2023-10-11T07:59:09.703Z,33.42
2023-10-11T08:00:18.615Z,33.32
2023-10-11T08:01:32.122Z,34.12
2023-10-11T08:02:43.476Z,32.58
2023-10-11T08:03:47.385Z,32.12
2023-10-11T08:04:50.109Z,31.00
2023-10-11T08:05:55.007Z,31.27
2023-10-11T08:07:10.155Z,32.63
2023-10-11T08:08:14.567Z,32.70
2023-10-11T08:09:20.915Z,31.67
2023-10-11T08:10:36.064Z,30.82
2023-10-11T08:11:46.312Z,31.35
2023-10-11T08:12:49.450Z,31.57
2023-10-11T08:13:51.827Z,31.57
2023-10-11T08:14:58.290Z,32.67
2023-10-11T08:16:06.517Z,29.33
2023-10-11T08:17:11.923Z,30.13
2023-10-11T08:18:17.428Z,29.47
2023-10-11T08:19:21.036Z,30.67
2023-10-11T08:20:30.878Z,29.60
2023-10-11T08:21:35.497Z,30.70
2023-10-11T08:22:37.737Z,30.22
2023-10-11T08:23:44.587Z,30.83
2023-10-11T08:24:50.001Z,29.17
2023-10-11T08:25:53.530Z,30.52
2023-10-11T08:27:06.752Z,30.32
2023-10-11T08:28:16.774Z,28.92
2023-10-11T08:29:31.742Z,30.25
2023-10-11T08:30:40.710Z,29.92
2023-10-11T08:31:45.337Z,28.28
2023-10-11T08:32:50.059Z,27.08
2023-10-11T08:33:54.825Z,27.25
2023-10-11T08:34:58.034Z,26.87
2023-10-11T08:36:00.449Z,25.23
2023-10-11T08:37:10.922Z,25.42
2023-10-11T08:38:20.597Z,24.30
2023-10-11T08:39:36.853Z,25.80
2023-10-11T08:40:44.892Z,24.98
2023-10-11T08:41:48.534Z,23.98
2023-10-11T08:42:59.848Z,22.55
2023-10-11T08:44:09.960Z,20.35
2023-10-11T08:45:16.012Z,20.02
2023-10-11T08:46:20.002Z,20.33
2023-10-11T08:47:22.575Z,20.70
2023-10-11T08:48:25.617Z,20.98
2023-10-11T08:49:28.976Z,18.87
2023-10-11T08:50:33.525Z,19.98
2023-10-11T08:51:45.057Z,19.98
2023-10-11T08:52:48.726Z,18.98
2023-10-11T08:53:55.875Z,18.58
2023-10-11T08:55:00.237Z,20.07
2023-10-11T08:56:04.172Z,19.57
2023-10-11T08:57:07.924Z,19.23
2023-10-11T08:58:13.965Z,18.73
2023-10-11T08:59:16.929Z,19.82
2023-10-11T09:00:30.528Z,18.83
2023-10-11T09:01:39.302Z,20.43
2023-10-11T09:02:49.742Z,20.22
2023-10-11T09:04:07.061Z,19.52
2023-10-11T09:05:30.240Z,19.78
2023-10-11T09:06:36.136Z,20.73
2023-10-11T09:07:46.398Z,21.13
2023-10-11T09:08:50.428Z,18.50
2023-10-11T09:09:56.254Z,20.25
2023-10-11T09:11:23.770Z,19.90
2023-10-11T09:12:27.644Z,19.87
2023-10-11T09:13:30.250Z,19.35
2023-10-11T09:14:35.747Z,19.15
2023-10-11T09:15:42.360Z,18.95
2023-10-11T09:16:46.732Z,18.53
2023-10-11T09:17:52.002Z,17.95
2023-10-11T09:19:06.726Z,18.55
2023-10-11T09:20:16.570Z,19.40
2023-10-11T09:21:20.458Z,18.43
2023-10-11T09:22:25.510Z,17.57
2023-10-11T09:23:38.509Z,18.32
2023-10-11T09:24:46.345Z,17.20
2023-10-11T09:25:59.696Z,18.95
2023-10-11T09:27:19.713Z,17.35
2023-10-11T09:28:23.391Z,17.95
2023-10-11T09:29:26.598Z,17.40
2023-10-11T09:30:32.757Z,16.98
2023-10-11T09:31:59.120Z,17.13
2023-10-11T09:33:16.937Z,16.05
2023-10-11T09:34:20.296Z,17.05
2023-10-11T09:35:27.997Z,17.67
2023-10-11T09:36:30.548Z,17.15
2023-10-11T09:37:35.827Z,17.15
2023-10-11T09:38:41.202Z,15.80
2023-10-11T09:39:46.129Z,15.80
2023-10-11T09:40:48.823Z,15.87
2023-10-11T09:41:55.592Z,15.42
2023-10-11T09:43:02.402Z,15.35
2023-10-11T09:44:11.888Z,14.57
2023-10-11T09:45:18.967Z,15.03
2023-10-11T09:46:30.448Z,14.30
2023-10-11T09:47:35.763Z,15.52
2023-10-11T09:48:39.892Z,14.92
2023-10-11T09:49:43.294Z,14.83
2023-10-11T09:50:46.767Z,15.50
2023-10-11T09:51:49.786Z,15.73
2023-10-11T09:52:55.320Z,14.82
2023-10-11T09:54:03.707Z,14.93
2023-10-11T09:55:18.801Z,15.67
2023-10-11T09:56:33.357Z,14.70
2023-10-11T09:57:51.500Z,14.42
2023-10-11T09:59:07.775Z,13.43
2023-10-11T10:00:18.520Z,13.83
2023-10-11T10:01:28.241Z,12.73
2023-10-11T10:02:36.398Z,13.17
2023-10-11T10:03:46.683Z,13.17
2023-10-11T10:05:06.019Z,13.55
2023-10-11T10:06:20.086Z,14.80
2023-10-11T10:07:28.438Z,13.78
2023-10-11T10:08:30.659Z,13.43
2023-10-11T10:09:57.308Z,13.55
2023-10-11T10:11:03.569Z,12.75
2023-10-11T10:12:24.110Z,12.57
2023-10-11T10:13:27.673Z,12.67
2023-10-11T10:14:31.628Z,13.03
2023-10-11T10:15:48.829Z,12.78
2023-10-11T10:17:12.354Z,12.95
2023-10-11T10:18:21.125Z,12.02
2023-10-11T10:19:26.882Z,12.62
2023-10-11T10:20:45.805Z,13.03
2023-10-11T10:22:12.320Z,12.17
2023-10-11T10:23:31.155Z,11.78
2023-10-11T10:24:33.505Z,12.67
2023-10-11T10:25:36.828Z,11.63
2023-10-11T10:26:41.055Z,11.68
2023-10-11T10:27:46.864Z,11.57
2023-10-11T10:28:55.036Z,11.50
2023-10-11T10:30:01.707Z,11.53
2023-10-11T10:31:10.946Z,11.97
2023-10-11T10:32:18.264Z,11.57
2023-10-11T10:33:24.257Z,11.52
2023-10-11T10:34:31.268Z,12.13
2023-10-11T10:35:39.195Z,12.05
2023-10-11T10:36:42.268Z,11.28
2023-10-11T10:37:57.237Z,11.92
2023-10-11T10:39:34.075Z,11.62
2023-10-11T10:40:40.848Z,12.60
2023-10-11T10:41:46.175Z,12.27
2023-10-11T10:43:15.541Z,12.62
2023-10-11T10:44:19.261Z,12.47
2023-10-11T10:45:26.817Z,12.13
2023-10-11T10:46:29.282Z,11.90
2023-10-11T10:47:34.206Z,12.38
2023-10-11T10:48:41.365Z,11.60
2023-10-11T10:49:44.179Z,11.05
2023-10-11T10:50:53.364Z,11.07
2023-10-11T10:51:58.549Z,10.85
2023-10-11T10:53:01.084Z,10.87
2023-10-11T10:54:08.188Z,10.70
2023-10-11T10:55:11.829Z,10.40
2023-10-11T10:56:23.538Z,10.20
2023-10-11T10:57:27.929Z,11.20
2023-10-11T10:58:31.303Z,11.02
2023-10-11T10:59:33.752Z,11.50
2023-10-11T11:00:40.259Z,11.53
2023-10-11T11:01:46.142Z,12.27
2023-10-11T11:02:48.852Z,11.20
2023-10-11T11:03:58.327Z,11.23
2023-10-11T11:05:02.470Z,11.47
2023-10-11T11:06:05.277Z,11.48
2023-10-11T11:07:07.561Z,10.95
2023-10-11T11:08:17.545Z,9.92
2023-10-11T11:09:21.063Z,11.40
2023-10-11T11:10:23.501Z,11.62
2023-10-11T11:11:28.204Z,10.63
2023-10-11T11:12:32.807Z,10.45
2023-10-11T11:13:35.306Z,10.45
2023-10-11T11:14:38.602Z,9.87
2023-10-11T11:15:45.408Z,10.03
2023-10-11T11:16:56.055Z,10.62
2023-10-11T11:18:02.903Z,10.13
2023-10-11T11:19:12.007Z,10.08
2023-10-11T11:20:16.272Z,10.58
2023-10-11T11:21:24.735Z,10.35
2023-10-11T11:22:39.288Z,9.55
2023-10-11T11:23:43.423Z,9.75
2023-10-11T11:24:45.976Z,9.80
2023-10-11T11:25:53.894Z,9.92
2023-10-11T11:26:56.202Z,10.12
2023-10-11T11:28:19.751Z,9.57
2023-10-11T11:29:32.785Z,8.75
2023-10-11T11:30:35.750Z,8.83
2023-10-11T11:31:53.457Z,9.18
2023-10-11T11:32:57.282Z,9.55
2023-10-11T11:34:13.182Z,9.37
2023-10-11T11:35:29.683Z,9.25
2023-10-11T11:36:33.134Z,9.08
2023-10-11T11:37:39.935Z,9.18
2023-10-11T11:38:47.524Z,9.08
2023-10-11T11:39:51.828Z,9.20
2023-10-11T11:41:14.639Z,9.27
2023-10-11T11:42:21.526Z,9.12
2023-10-11T11:43:33.436Z,9.53
2023-10-11T11:44:36.856Z,10.00
2023-10-11T11:45:38.992Z,9.38
2023-10-11T11:46:41.286Z,9.10
2023-10-11T11:47:54.869Z,9.13
2023-10-11T11:49:01.318Z,9.32
2023-10-11T11:50:07.154Z,8.97
2023-10-11T11:51:15.212Z,8.77
2023-10-11T11:52:19.152Z,9.17
2023-10-11T11:53:21.403Z,8.50
2023-10-11T11:54:28.536Z,8.75
2023-10-11T11:55:33.212Z,8.80
2023-10-11T11:56:35.615Z,9.05
2023-10-11T11:57:38.033Z,9.23
2023-10-11T11:58:46.565Z,9.07
2023-10-11T11:59:48.931Z,8.17
2023-10-11T12:01:10.245Z,8.45
2023-10-11T12:02:18.901Z,8.55
2023-10-11T12:03:24.781Z,7.80
2023-10-11T12:04:30.734Z,8.35
2023-10-11T12:05:38.361Z,8.55
2023-10-11T12:06:41.537Z,8.22
2023-10-11T12:07:44.533Z,7.82
2023-10-11T12:08:46.995Z,8.83
2023-10-11T12:10:03.455Z,8.48
2023-10-11T12:11:06.497Z,7.73
2023-10-11T12:12:08.810Z,8.10
2023-10-11T12:13:11.936Z,8.28
2023-10-11T12:14:15.676Z,7.73
2023-10-11T12:15:18.438Z,8.47
2023-10-11T12:16:24.090Z,8.00
2023-10-11T12:17:27.056Z,7.38
2023-10-11T12:18:34.675Z,7.52
2023-10-11T12:19:37.206Z,8.00
2023-10-11T12:20:41.052Z,8.30
2023-10-11T12:21:43.448Z,9.02
2023-10-11T12:22:46.823Z,8.30
2023-10-11T12:23:49.186Z,8.37
2023-10-11T12:24:53.346Z,8.68
2023-10-11T12:25:55.779Z,8.57
2023-10-11T12:27:00.379Z,8.87
2023-10-11T12:28:05.232Z,8.67
2023-10-11T12:29:10.173Z,8.27
2023-10-11T12:30:21.104Z,8.90
2023-10-11T12:31:24.811Z,9.17
2023-10-11T12:32:28.080Z,8.38
2023-10-11T12:33:32.154Z,7.93
2023-10-11T12:34:34.566Z,7.98
2023-10-11T12:35:41.227Z,8.10
2023-10-11T12:36:43.833Z,8.67
2023-10-11T12:37:47.057Z,8.32
2023-10-11T12:38:50.430Z,7.43
2023-10-11T12:39:55.049Z,7.60
2023-10-11T12:41:00.394Z,7.58
2023-10-11T12:42:03.595Z,7.55
2023-10-11T12:43:08.701Z,7.73
2023-10-11T12:44:13.600Z,7.78
2023-10-11T12:45:18.658Z,7.17
2023-10-11T12:46:22.180Z,7.32
2023-10-11T12:47:24.429Z,7.10
2023-10-11T12:48:27.689Z,7.50
2023-10-11T12:49:29.984Z,7.85
2023-10-11T12:50:38.042Z,7.60
2023-10-11T12:51:40.295Z,7.72
2023-10-11T12:52:43.679Z,6.95
2023-10-11T12:53:46.220Z,7.17
2023-10-11T12:54:52.523Z,7.03
2023-10-11T12:55:54.761Z,6.77
2023-10-11T12:56:58.200Z,6.90
2023-10-11T12:58:00.435Z,7.62
2023-10-11T12:59:03.882Z,7.87
2023-10-11T13:00:16.455Z,7.35
2023-10-11T13:01:27.325Z,7.10
2023-10-11T13:02:35.348Z,6.98
2023-10-11T13:03:40.053Z,7.55
2023-10-11T13:04:48.664Z,7.05
2023-10-11T13:05:53.465Z,7.05
2023-10-11T13:06:55.651Z,6.92
2023-10-11T13:08:00.415Z,7.25
2023-10-11T13:09:06.135Z,7.57
2023-10-11T13:10:08.720Z,6.95
2023-10-11T13:11:14.181Z,7.32
2023-10-11T13:12:19.365Z,7.33
2023-10-11T13:13:23.629Z,6.92
2023-10-11T13:14:26.186Z,7.28
2023-10-11T13:15:28.951Z,7.08
2023-10-11T13:16:34.169Z,6.93
2023-10-11T13:17:41.603Z,6.32
2023-10-11T13:18:46.813Z,7.12
2023-10-11T13:19:52.342Z,6.93
2023-10-11T13:20:56.744Z,6.93
2023-10-11T13:21:59.530Z,7.02
2023-10-11T13:23:02.701Z,7.50
2023-10-11T13:24:09.739Z,6.95
2023-10-11T13:25:33.310Z,6.85
2023-10-11T13:26:37.524Z,7.10
2023-10-11T13:27:41.116Z,7.22
2023-10-11T13:28:47.861Z,6.92
2023-10-11T13:29:51.392Z,6.78
2023-10-11T13:30:54.686Z,7.02
2023-10-11T13:32:00.124Z,6.75
2023-10-11T13:33:02.405Z,7.37
2023-10-11T13:34:07.070Z,7.22
2023-10-11T13:35:13.285Z,7.67
2023-10-11T13:36:16.540Z,7.23
2023-10-11T13:37:21.577Z,7.57
2023-10-11T13:38:26.012Z,7.47
2023-10-11T13:39:28.767Z,7.35
2023-10-11T13:40:33.459Z,7.17
2023-10-11T13:41:35.662Z,7.47
2023-10-11T13:42:39.347Z,7.07
2023-10-11T13:43:41.942Z,7.80
2023-10-11T13:44:45.832Z,7.53
2023-10-11T13:45:48.495Z,7.12
2023-10-11T13:46:54.363Z,6.80
2023-10-11T13:47:59.155Z,7.08
2023-10-11T13:49:21.965Z,7.18
2023-10-11T13:50:31.145Z,6.78
2023-10-11T13:51:36.554Z,7.17
2023-10-11T13:52:38.762Z,7.30
2023-10-11T13:53:42.803Z,7.20
2023-10-11T13:54:50.746Z,7.77
2023-10-11T13:55:53.525Z,8.47
2023-10-11T13:56:55.642Z,7.82
2023-10-11T13:57:58.757Z,7.78
2023-10-11T13:59:04.003Z,8.48
2023-10-11T14:00:39.608Z,8.65
2023-10-11T14:02:00.450Z,8.02
2023-10-11T14:03:40.456Z,8.08
2023-10-11T14:04:58.106Z,7.65
2023-10-11T14:06:21.718Z,7.53
2023-10-11T14:07:28.435Z,7.60
2023-10-11T14:08:41.346Z,7.70
2023-10-11T14:09:46.997Z,8.42
2023-10-11T14:10:49.226Z,7.72
2023-10-11T14:11:52.364Z,7.48
2023-10-11T14:12:57.860Z,7.32
2023-10-11T14:14:01.663Z,7.93
2023-10-11T14:15:08.232Z,7.68
2023-10-11T14:16:15.388Z,7.97
2023-10-11T14:17:17.601Z,7.47
2023-10-11T14:18:22.339Z,7.93
2023-10-11T14:19:26.320Z,7.98
2023-10-11T14:20:31.931Z,7.87
2023-10-11T14:21:38.040Z,7.63
2023-10-11T14:22:44.382Z,7.88
2023-10-11T14:23:47.273Z,7.55
2023-10-11T14:24:49.893Z,7.90
2023-10-11T14:25:54.857Z,8.00
2023-10-11T14:26:57.008Z,7.78
2023-10-11T14:28:00.194Z,8.45
2023-10-11T14:29:08.305Z,8.85
2023-10-11T14:30:14.099Z,8.98
2023-10-11T14:31:19.851Z,8.22